createdAt,value
2019-05-17T09:13:00.032Z,22.9171
2019-05-17T09:13:12.415Z,22.9866
2019-05-17T09:13:22.883Z,23.3684
2019-05-17T09:13:31.284Z,23.5527
2019-05-17T09:13:40.084Z,23.6648
2019-05-17T09:13:58.317Z,23.8758
2019-05-17T09:14:10.468Z,23.7930
2019-05-17T09:14:21.359Z,23.8197
2019-05-17T09:14:29.918Z,24.6368
2019-05-17T09:14:40.091Z,23.9185
2019-05-17T09:14:49.612Z,24.0867
2019-05-17T09:15:00.258Z,26.9600
2019-05-17T09:15:10.074Z,28.1296
2019-05-17T09:15:20.329Z,28.4661
2019-05-17T09:15:29.670Z,28.9040
2019-05-17T09:15:39.941Z,28.6931
2019-05-17T09:15:49.440Z,28.9467
2019-05-17T09:16:00.146Z,29.6651
2019-05-17T09:16:10.690Z,29.3553
2019-05-17T09:16:19.712Z,29.6651
2019-05-17T09:16:30.574Z,29.5369
2019-05-17T09:16:40.087Z,30.3834
2019-05-17T09:16:50.441Z,30.1724
2019-05-17T09:17:00.430Z,30.6664
2019-05-17T09:17:10.281Z,31.6651
2019-05-17T09:17:19.403Z,31.8494
2019-05-17T09:17:29.913Z,31.3554
2019-05-17T09:17:39.597Z,30.5116
2019-05-17T09:17:49.855Z,30.3407
2019-05-17T09:18:00.281Z,29.7478
2019-05-17T09:18:09.913Z,30.0469
2019-05-17T09:18:20.656Z,30.4555
2019-05-17T09:18:30.163Z,30.5943
2019-05-17T09:18:39.448Z,30.5676
2019-05-17T09:18:50.031Z,30.2151
2019-05-17T09:19:00.565Z,30.0309
2019-05-17T09:19:10.100Z,29.8360
2019-05-17T09:19:19.416Z,29.7639
2019-05-17T09:19:29.897Z,29.9054
2019-05-17T09:19:39.474Z,29.8066
2019-05-17T09:19:50.507Z,30.0603
2019-05-17T09:20:00.722Z,27.6650
2019-05-17T09:20:10.697Z,26.1295
2019-05-17T09:20:20.396Z,26.2283
2019-05-17T09:20:29.631Z,25.9747
2019-05-17T09:20:40.241Z,27.1149
2019-05-17T09:20:49.498Z,28.5382
2019-05-17T09:21:00.068Z,28.4260
2019-05-17T09:21:09.697Z,28.1163
2019-05-17T09:21:18.256Z,26.9039
2019-05-17T09:21:26.680Z,26.3405
2019-05-17T09:21:35.087Z,25.8892
2019-05-17T09:21:43.503Z,25.8492
2019-05-17T09:21:51.918Z,25.5528
2019-05-17T09:22:00.327Z,25.3552
2019-05-17T09:22:10.536Z,25.3418
2019-05-17T09:22:19.806Z,25.0881
2019-05-17T09:22:30.419Z,24.9332
2019-05-17T09:22:39.589Z,24.9332
2019-05-17T09:22:48.303Z,25.4940
2019-05-17T09:22:56.715Z,25.0454
2019-05-17T09:23:05.144Z,25.0320
2019-05-17T09:23:13.558Z,25.1575
2019-05-17T09:23:21.960Z,25.4807
2019-05-17T09:23:30.673Z,25.5955
2019-05-17T09:23:39.692Z,25.1575
2019-05-17T09:23:50.224Z,26.2844
2019-05-17T09:23:59.751Z,26.2844
2019-05-17T09:24:10.253Z,28.7091
2019-05-17T09:24:35.339Z,26.5381
2019-05-17T09:24:43.742Z,26.3565
2019-05-17T09:24:52.149Z,26.0574
2019-05-17T09:25:00.562Z,25.5688
2019-05-17T09:25:13.587Z,25.4379
2019-05-17T09:25:23.382Z,25.5100
2019-05-17T09:25:31.802Z,25.5688
2019-05-17T09:25:40.263Z,25.6382
2019-05-17T09:25:50.073Z,25.6249
2019-05-17T09:25:59.522Z,25.6088
2019-05-17T09:26:10.059Z,25.6249
2019-05-17T09:26:19.978Z,25.5821
2019-05-17T09:26:29.412Z,25.5821
2019-05-17T09:26:39.949Z,25.5821
2019-05-17T09:26:49.217Z,25.5394
2019-05-17T09:26:59.857Z,25.4807
2019-05-17T09:39:15.463Z,21.2562
2019-05-17T09:39:23.883Z,21.3149
2019-05-17T09:39:32.360Z,21.2856
2019-05-17T09:39:40.774Z,21.2722
2019-05-17T09:39:49.323Z,21.2989
2019-05-17T09:39:59.700Z,21.3283
2019-05-17T09:40:09.359Z,21.2989
2019-05-17T09:40:20.027Z,21.3283
2019-05-17T09:40:29.270Z,21.3710
2019-05-17T09:40:40.130Z,21.3844
2019-05-17T09:40:50.549Z,21.4271
2019-05-17T09:41:00.014Z,21.8597
2019-05-17T09:41:09.364Z,1.1273
2019-05-17T09:41:19.886Z,1.2127
2019-05-17T09:41:29.319Z,1.1566
2019-05-17T09:41:39.752Z,0.9991
2019-05-17T09:41:50.299Z,1.1994
2019-05-17T09:41:59.597Z,1.4370
2019-05-17T09:42:10.191Z,1.4931
2019-05-17T09:42:20.945Z,1.5064
2019-05-17T09:42:30.088Z,1.5225
2019-05-17T09:42:41.147Z,1.5358
2019-05-17T09:42:50.056Z,1.5358
2019-05-17T09:43:00.523Z,1.2554
2019-05-17T09:43:10.213Z,0.8736
2019-05-17T09:43:20.524Z,0.9030
2019-05-17T09:43:29.647Z,0.8736
2019-05-17T09:43:40.226Z,0.9163
2019-05-17T09:43:49.686Z,0.8869
2019-05-17T09:44:09.600Z,0.9030
2019-05-17T09:44:16.192Z,0.9030
2019-05-17T09:44:25.114Z,0.9297
2019-05-17T09:44:33.621Z,0.9163
2019-05-17T09:44:42.643Z,0.9297
2019-05-17T09:44:51.120Z,0.9590
2019-05-17T09:45:00.390Z,0.9590
2019-05-17T09:45:09.654Z,0.9590
2019-05-17T09:45:20.206Z,0.9857
2019-05-17T09:45:30.606Z,0.9991
2019-05-17T09:45:40.396Z,1.0151
2019-05-17T09:45:50.667Z,0.6760
2019-05-17T09:46:01.689Z,0.6359
2019-05-17T09:46:10.807Z,0.6493
2019-05-17T09:46:19.786Z,0.6199
2019-05-17T09:46:30.283Z,0.6626
2019-05-17T09:46:39.565Z,0.6760
